createdAt,value
2023-01-24T00:00:51.418Z,38.08
2023-01-24T00:03:18.395Z,35.63
2023-01-24T00:05:47.567Z,34.97
2023-01-24T00:08:16.867Z,33.22
2023-01-24T00:10:43.742Z,31.30
2023-01-24T00:13:14.765Z,31.17
2023-01-24T00:15:42.202Z,30.85
2023-01-24T00:18:09.183Z,29.13
2023-01-24T00:20:36.233Z,31.13
2023-01-24T00:23:03.091Z,27.77
2023-01-24T00:25:29.959Z,28.80
2023-01-24T00:27:56.765Z,25.05
2023-01-24T00:30:23.705Z,25.35
2023-01-24T00:32:50.496Z,26.98
2023-01-24T00:35:17.423Z,23.58
2023-01-24T00:37:44.228Z,25.52
2023-01-24T00:40:11.514Z,24.95
2023-01-24T00:42:38.313Z,23.67
2023-01-24T00:45:05.818Z,24.35
2023-01-24T00:47:32.595Z,23.83
2023-01-24T00:49:59.426Z,21.40
2023-01-24T00:52:26.607Z,20.10
2023-01-24T00:54:53.545Z,17.27
2023-01-24T00:57:22.349Z,16.50
2023-01-24T00:59:49.206Z,16.88
2023-01-24T01:02:16.038Z,16.67
2023-01-24T01:04:42.882Z,15.90
2023-01-24T01:07:09.758Z,16.10
2023-01-24T01:09:36.614Z,16.35
2023-01-24T01:12:03.742Z,15.70
2023-01-24T01:14:30.556Z,15.65
2023-01-24T01:16:57.462Z,16.95
2023-01-24T01:19:24.279Z,17.27
2023-01-24T01:21:51.135Z,17.88
2023-01-24T01:24:18.529Z,16.83
2023-01-24T01:26:45.412Z,15.57
2023-01-24T01:29:12.253Z,15.13
2023-01-24T01:31:39.268Z,15.85
2023-01-24T01:34:06.268Z,15.32
2023-01-24T01:36:33.160Z,15.63
2023-01-24T01:39:00.224Z,15.07
2023-01-24T01:41:27.019Z,15.65
2023-01-24T01:44:12.526Z,15.40
2023-01-24T01:46:51.794Z,15.43
2023-01-24T01:49:27.802Z,16.33
2023-01-24T01:51:59.247Z,16.45
2023-01-24T01:54:30.410Z,16.52
2023-01-24T01:57:02.343Z,17.17
2023-01-24T01:59:58.922Z,16.75
2023-01-24T02:02:26.250Z,14.00
2023-01-24T02:05:05.602Z,13.77
2023-01-24T02:07:40.868Z,13.25
2023-01-24T02:10:08.172Z,14.82
2023-01-24T02:12:40.582Z,14.48
2023-01-24T02:15:29.765Z,14.55
2023-01-24T02:20:42.445Z,14.90
2023-01-24T02:23:30.850Z,16.43
2023-01-24T02:26:10.988Z,14.20
2023-01-24T02:28:39.920Z,15.48
2023-01-24T02:31:07.059Z,14.68
2023-01-24T02:33:35.143Z,14.50
2023-01-24T02:36:48.374Z,14.07
2023-01-24T02:39:21.422Z,16.27
2023-01-24T02:41:55.621Z,16.50
2023-01-24T02:45:14.691Z,14.30
2023-01-24T02:47:52.649Z,14.95
2023-01-24T02:50:22.195Z,14.10
2023-01-24T02:53:07.759Z,14.90
2023-01-24T02:55:55.880Z,16.25
2023-01-24T02:58:22.898Z,15.55
2023-01-24T03:00:49.766Z,15.52
2023-01-24T03:03:16.863Z,16.85
2023-01-24T03:05:59.460Z,16.50
2023-01-24T03:08:29.754Z,16.85
2023-01-24T03:10:57.145Z,16.05
2023-01-24T03:13:43.503Z,15.67
2023-01-24T03:16:29.797Z,14.75
2023-01-24T03:19:15.397Z,16.98
2023-01-24T03:22:01.511Z,16.17
2023-01-24T03:24:47.061Z,16.38
2023-01-24T03:27:32.720Z,16.50
2023-01-24T03:30:18.455Z,17.08
2023-01-24T03:33:04.288Z,16.35
2023-01-24T03:35:31.251Z,16.03
2023-01-24T03:38:17.130Z,17.73
2023-01-24T03:40:44.201Z,17.23
2023-01-24T03:43:11.097Z,16.50
2023-01-24T03:45:39.827Z,16.93
2023-01-24T03:48:15.817Z,18.30
2023-01-24T03:51:02.989Z,17.40
2023-01-24T03:53:32.018Z,17.60
2023-01-24T03:56:01.327Z,18.17
2023-01-24T03:58:30.129Z,17.95
2023-01-24T04:00:57.302Z,18.35
2023-01-24T04:03:24.710Z,17.65
2023-01-24T04:05:52.026Z,19.03
2023-01-24T04:08:19.503Z,19.40
2023-01-24T04:10:46.398Z,20.27
2023-01-24T04:13:13.760Z,20.95
2023-01-24T04:15:40.759Z,19.92
2023-01-24T04:18:08.098Z,19.48
2023-01-24T04:20:37.654Z,20.50
2023-01-24T04:23:07.380Z,20.75
2023-01-24T04:25:35.358Z,21.48
2023-01-24T04:28:02.694Z,20.42
2023-01-24T04:30:29.775Z,19.42
2023-01-24T04:32:56.795Z,18.58
2023-01-24T04:35:26.258Z,18.75
2023-01-24T04:37:53.420Z,17.75
2023-01-24T04:40:20.239Z,18.27
2023-01-24T04:42:47.080Z,19.90
2023-01-24T04:45:13.948Z,19.33
2023-01-24T04:47:40.841Z,20.48
2023-01-24T04:50:08.664Z,19.60
2023-01-24T04:52:35.591Z,20.15
2023-01-24T04:55:02.588Z,17.90
2023-01-24T04:57:29.448Z,18.38
2023-01-24T04:59:56.226Z,19.55
2023-01-24T05:02:23.129Z,16.38
2023-01-24T05:04:50.062Z,17.60
2023-01-24T05:07:17.011Z,18.00
2023-01-24T05:09:43.899Z,17.70
2023-01-24T05:12:10.724Z,17.67
2023-01-24T05:14:37.529Z,15.85
2023-01-24T05:17:04.459Z,17.57
2023-01-24T05:19:31.355Z,15.60
2023-01-24T05:21:58.387Z,14.57
2023-01-24T05:24:25.328Z,15.63
2023-01-24T05:26:52.365Z,15.60
2023-01-24T10:07:07.644Z,9.80
2023-01-24T10:10:05.591Z,12.13
2023-01-24T10:12:53.804Z,9.93
2023-01-24T10:15:29.704Z,10.00
2023-01-24T10:18:08.327Z,10.67
2023-01-24T10:21:12.223Z,9.47
2023-01-24T10:23:42.785Z,10.67
2023-01-24T10:26:20.272Z,9.80
2023-01-24T10:28:54.353Z,11.57
2023-01-24T10:31:21.182Z,10.87
2023-01-24T10:33:50.538Z,10.53
2023-01-24T13:06:10.075Z,7.70
2023-01-24T13:08:51.372Z,9.05
2023-01-24T13:11:25.052Z,7.60
2023-01-24T13:14:13.658Z,9.07
2023-01-24T13:17:03.620Z,8.77
2023-01-24T13:19:44.904Z,9.63
2023-01-24T13:22:32.923Z,8.98
2023-01-24T13:25:18.533Z,8.38
2023-01-24T13:27:51.221Z,9.13
2023-01-24T13:30:35.835Z,8.13
2023-01-24T13:33:05.072Z,9.27
2023-01-24T13:35:32.768Z,10.63
2023-01-24T13:38:30.501Z,9.85
2023-01-24T13:41:06.699Z,9.27
2023-01-24T13:43:58.477Z,9.10
2023-01-24T13:46:46.512Z,10.77
2023-01-24T13:49:33.450Z,11.05
2023-01-24T13:52:02.129Z,11.10
2023-01-24T13:54:42.945Z,11.35
2023-01-24T13:57:21.795Z,10.33
2023-01-24T14:00:16.287Z,12.18
2023-01-24T14:02:48.975Z,12.07
2023-01-24T14:05:58.373Z,10.73
2023-01-24T14:08:27.868Z,9.95
2023-01-24T14:11:07.034Z,11.98
2023-01-24T14:13:49.013Z,10.67
2023-01-24T15:22:00.062Z,10.53
2023-01-24T15:24:29.617Z,10.47
2023-01-24T15:26:58.641Z,12.23
2023-01-24T15:29:39.162Z,13.27
2023-01-24T15:32:27.695Z,12.00
2023-01-24T15:35:13.186Z,10.63
2023-01-24T15:37:40.254Z,10.40
2023-01-24T15:42:54.165Z,9.60
2023-01-24T15:45:21.110Z,10.13
2023-01-24T15:47:50.447Z,11.30
2023-01-24T15:50:43.403Z,10.30
2023-01-24T15:53:24.125Z,10.57
2023-01-24T15:55:52.352Z,12.17
2023-01-24T15:58:19.290Z,11.85
2023-01-24T16:00:54.663Z,11.68
2023-01-24T16:03:22.629Z,12.40
2023-01-24T16:05:50.561Z,11.85
2023-01-24T16:08:17.573Z,13.05
2023-01-24T16:10:46.138Z,12.63
2023-01-24T16:13:41.648Z,11.52
2023-01-24T16:16:13.509Z,11.70
2023-01-24T16:18:42.076Z,10.73
2023-01-24T16:21:10.899Z,10.70
2023-01-24T16:23:37.895Z,11.00
2023-01-24T16:26:04.870Z,10.77
2023-01-24T16:28:31.782Z,11.47
2023-01-24T16:31:03.960Z,11.90
